Terminal Aerodrome Forecast
Issued by NWS

Home | Current Version | Previous Version | Text Only | Print | Product List | Glossary Off
Versions: 1 2 3 4 5 6 7 8 9 10 11 12 13 14 15 16 17 18 19 20 21 22 23

000
FTUS42 KMHX 221400 AAA
TAFPGV
TAF AMD
KPGV 221405Z 2214/2312 06006KT P6SM BKN009 OVC015
     FM221530 08006KT P6SM VCTS SCT015 BKN035CB
     FM230000 18003KT P6SM SCT025 OVC120
     FM230700 20003KT 4SM BR SCT007
      AMD LTD TO CLD VIS AND WIND=

USA.gov is the U.S. government's official web portal to all federal, state and local government web resources and services.